Sunday, May 27, 2018, 1:54 PM EDT
Back to Local

KTHV, York Airport

Location: Spring Grove, PA, United States Lat: 39.917
Local Time: 1:54 PM EDT (17:54 GMT) Lon: -76.883
Time Zone: US/Eastern Elev: 478 ft

Show me the last for .
Show Decoded

2018-05-27 13:29 METAR KTHV 271729Z AUTO 06007KT 10SM FEW026 BKN033 BKN040 26/21 A2994 RMK AO2
                 T02610211 =
2018-05-27 13:22 METAR KTHV 271722Z AUTO 05009KT 10SM BKN026 BKN033 OVC040 26/21 A2994 RMK AO2
                 T02610211 =
2018-05-27 13:13 METAR KTHV 271713Z AUTO 07009KT 10SM SCT023 BKN040 26/21 A2994 RMK AO2 T02560211
                 =
2018-05-27 13:03 METAR KTHV 271703Z AUTO 07008KT 10SM BKN023 BKN038 BKN095 26/21 A2994 RMK AO2
                 T02610206 =
2018-05-27 12:53 METAR KTHV 271653Z AUTO 04008KT 10SM SCT023 BKN100 27/21 A2994 RMK AO2 SLP138
                 T02670211 =
2018-05-27 12:36 METAR KTHV 271636Z AUTO 09008KT 10SM SCT021 BKN100 27/22 A2995 RMK AO2 T02670217
                 =
2018-05-27 12:17 METAR KTHV 271617Z AUTO 05009KT 10SM BKN020 26/21 A2995 RMK AO2 T02610211 =
2018-05-27 11:53 METAR KTHV 271553Z AUTO 06010KT 6SM HZ FEW018 SCT023 SCT039 26/22 A2995 RMK AO2
                 SLP140 T02610217 =
2018-05-27 11:11 METAR KTHV 271511Z AUTO 03006KT 9SM FEW020 SCT029 27/22 A2995 RMK AO2 T02670217
                 =
2018-05-27 10:53 METAR KTHV 271453Z AUTO 05005KT 10SM BKN019 BKN029 26/21 A2995 RMK AO2 SLP140
                 T02560211 51012 =
2018-05-27 09:53 METAR KTHV 271353Z AUTO 02006KT 10SM OVC120 24/21 A2994 RMK AO2 SLP138 T02440206
                 =
2018-05-27 08:53 METAR KTHV 271253Z AUTO 32004KT 10SM BKN100 OVC120 23/21 A2993 RMK AO2 SLP134
                 T02330211 =
2018-05-27 07:53 METAR KTHV 271153Z AUTO 00000KT 10SM SCT120 23/21 A2992 RMK AO2 SLP128 60000
                 70005 T02280211 10228 20206 51012 =
2018-05-27 07:27 METAR KTHV 271127Z AUTO 28003KT 10SM FEW005 22/21 A2991 RMK AO2 T02220211 =
2018-05-27 06:53 METAR KTHV 271053Z AUTO 00000KT 7SM CLR 22/21 A2991 RMK AO2 SLP126 T02170211 =
2018-05-27 06:08 METAR KTHV 271008Z AUTO 00000KT 3SM BR SCT036 BKN085 21/21 A2990 RMK AO2
                 T02060206 =
2018-05-27 06:01 METAR KTHV 271001Z AUTO 00000KT 2 1/2SM BR FEW034 SCT085 21/21 A2989 RMK AO2
                 T02060206 =
2018-05-27 05:53 METAR KTHV 270953Z AUTO 00000KT 1 3/4SM BR FEW085 21/20 A2989 RMK AO2 SLP120
                 T02060200 =
2018-05-27 05:51 METAR KTHV 270951Z AUTO 00000KT 2SM BR CLR 21/20 A2989 RMK AO2 =
2018-05-27 04:53 METAR KTHV 270853Z AUTO 00000KT 7SM SCT100 21/21 A2988 RMK AO2 SLP116 60000
                 T02110211 53002 =
2018-05-27 03:53 METAR KTHV 270753Z AUTO 00000KT 5SM BR CLR 22/21 A2987 RMK AO2 RAE16 SLP112
                 P0000 T02170211 =
2018-05-27 02:53 METAR KTHV 270653Z AUTO 00000KT 7SM -RA BKN110 22/22 A2986 RMK AO2 RAB03E19B45
                 SLP110 P0000 T02220217 =
2018-05-27 01:53 METAR KTHV 270553Z AUTO 00000KT 8SM SCT120 22/22 A2988 RMK AO2 RAB13E23 SLP114
                 P0000 60001 T02220217 10233 20222 58001 =
2018-05-27 00:53 METAR KTHV 270453Z AUTO 00000KT 10SM FEW110 23/22 A2988 RMK AO2 SLP114 T02280217
                 403170183 =
2018-05-26 23:53 METAR KTHV 270353Z AUTO 00000KT 10SM BKN110 23/22 A2989 RMK AO2 SLP118 T02330217
                 =
2018-05-26 22:53 METAR KTHV 270253Z AUTO 00000KT 10SM CLR 23/22 A2988 RMK AO2 RAB07E32 SLP114
                 P0001 60001 T02330217 51012 =
2018-05-26 21:53 METAR KTHV 270153Z AUTO 00000KT 10SM CLR 23/22 A2987 RMK AO2 SLP112 T02330217 =
2018-05-26 20:53 METAR KTHV 270053Z AUTO 00000KT 10SM CLR 22/21 A2986 RMK AO2 SLP109 T02220211 =
2018-05-26 19:53 METAR KTHV 262353Z AUTO 20003KT 10SM CLR 23/21 A2984 RMK AO2 RAE05 SLP103 P0000
                 60004 T02280206 10317 20228 50012 =
2018-05-26 19:31 METAR KTHV 262331Z AUTO 00000KT 10SM CLR 24/19 A2984 RMK AO2 RAE05 P0000
                 T02390194 =
2018-05-26 19:04 METAR KTHV 262304Z AUTO 32008KT 10SM VCTS -RA FEW034 BKN060 BKN090 24/21 A2985
                 RMK AO2 P0000 T02390211 =
2018-05-26 18:53 METAR KTHV 262253Z AUTO 20010G20KT 2 1/2SM VCTS RA BR BKN055 BKN070 OVC110 23/21
                 A2984 RMK AO2 LTG DSNT E RAB44 SLP104 P0004 T02330211 =
2018-05-26 18:34 METAR KTHV 262234Z AUTO 20012G19KT 10SM VCTS BKN060 26/19 A2982 RMK AO2 LTG DSNT
                 NW T02610194 =
2018-05-26 17:53 METAR KTHV 262153Z AUTO 00000KT 10SM FEW120 30/18 A2981 RMK AO2 LTG DSNT SW AND
                 W SLP092 T03000183 =
2018-05-26 16:53 METAR KTHV 262053Z AUTO 00000KT 10SM SCT065 30/17 A2980 RMK AO2 SLP091 T03000172
                 55011 =
2018-05-26 15:53 METAR KTHV 261953Z AUTO 28006KT 10SM FEW065 32/17 A2980 RMK AO2 SLP089 T03170172
                 =
2018-05-26 14:53 METAR KTHV 261853Z AUTO VRB04KT 10SM FEW065 31/17 A2982 RMK AO2 SLP094 T03110172
                 =

Support USWX by starting your Amazon purchase here.